createdAt,value
2022-10-06T00:00:39.472Z,2.42
2022-10-06T00:03:06.306Z,2.22
2022-10-06T00:05:33.320Z,2.05
2022-10-06T00:08:01.085Z,2.08
2022-10-06T00:10:28.024Z,1.98
2022-10-06T00:12:54.969Z,2.22
2022-10-06T00:15:28.378Z,1.92
2022-10-06T00:17:56.238Z,1.92
2022-10-06T00:20:24.156Z,1.90
2022-10-06T00:22:51.586Z,2.05
2022-10-06T00:25:23.570Z,2.08
2022-10-06T00:27:52.062Z,2.25
2022-10-06T00:30:25.304Z,2.65
2022-10-06T00:32:56.130Z,1.85
2022-10-06T00:35:28.160Z,1.92
2022-10-06T00:37:55.130Z,2.05
2022-10-06T00:40:23.135Z,1.95
2022-10-06T00:43:02.055Z,1.90
2022-10-06T00:45:39.580Z,2.30
2022-10-06T00:48:14.299Z,1.88
2022-10-06T00:50:42.496Z,2.30
2022-10-06T00:53:12.100Z,2.15
2022-10-06T00:55:39.002Z,2.40
2022-10-06T00:58:07.588Z,1.75
2022-10-06T01:00:35.272Z,1.63
2022-10-06T01:03:25.873Z,1.83
2022-10-06T01:05:54.698Z,1.60
2022-10-06T01:08:22.750Z,1.52
2022-10-06T01:10:49.688Z,1.60
2022-10-06T01:13:18.107Z,1.83
2022-10-06T01:15:50.514Z,2.00
2022-10-06T01:18:21.971Z,1.90
2022-10-06T01:20:57.604Z,2.40
2022-10-06T01:23:24.638Z,1.80
2022-10-06T01:25:52.850Z,1.65
2022-10-06T01:28:20.161Z,2.13
2022-10-06T01:30:52.545Z,2.00
2022-10-06T01:33:22.335Z,2.40
2022-10-06T01:35:52.652Z,1.95
2022-10-06T01:38:21.846Z,1.92
2022-10-06T01:40:53.571Z,1.55
2022-10-06T01:43:20.913Z,2.10
2022-10-06T01:45:57.874Z,1.70
2022-10-06T01:48:25.654Z,2.30
2022-10-06T01:50:54.403Z,1.95
2022-10-06T01:53:21.883Z,1.70
2022-10-06T01:55:49.123Z,2.10
2022-10-06T01:58:20.431Z,2.13
2022-10-06T02:00:47.837Z,1.70
2022-10-06T02:03:14.697Z,1.90
2022-10-06T02:05:42.092Z,1.75
2022-10-06T02:08:09.795Z,2.22
2022-10-06T02:10:36.863Z,1.98
2022-10-06T02:13:07.798Z,2.05
2022-10-06T02:15:36.115Z,2.22
2022-10-06T02:18:03.162Z,1.83
2022-10-06T02:20:30.208Z,1.58
2022-10-06T02:22:57.040Z,1.90
2022-10-06T02:25:23.875Z,2.05
2022-10-06T02:27:51.591Z,1.90
2022-10-06T02:30:18.580Z,1.73
2022-10-06T02:32:46.607Z,1.80
2022-10-06T02:35:14.103Z,2.00
2022-10-06T02:37:42.174Z,1.90
2022-10-06T02:40:11.989Z,1.52
2022-10-06T02:42:39.777Z,1.88
2022-10-06T02:45:08.332Z,2.88
2022-10-06T02:47:36.899Z,2.00
2022-10-06T02:50:07.042Z,2.33
2022-10-06T02:52:36.483Z,2.13
2022-10-06T02:55:06.495Z,1.70
2022-10-06T02:57:33.399Z,1.80
2022-10-06T03:00:00.961Z,2.22
2022-10-06T03:02:31.091Z,3.08
2022-10-06T03:04:58.296Z,2.30
2022-10-06T03:07:25.626Z,2.28
2022-10-06T03:09:52.518Z,2.20
2022-10-06T03:12:20.209Z,1.50
2022-10-06T03:14:47.063Z,2.38
2022-10-06T03:17:14.276Z,2.00
2022-10-06T03:19:48.459Z,1.55
2022-10-06T03:22:15.448Z,2.47
2022-10-06T03:24:48.750Z,2.08
2022-10-06T03:27:15.916Z,1.98
2022-10-06T03:29:42.761Z,2.20
2022-10-06T03:32:09.627Z,2.25
2022-10-06T03:34:37.663Z,2.25
2022-10-06T03:37:07.210Z,2.17
2022-10-06T03:39:34.285Z,2.20
2022-10-06T03:42:01.932Z,2.60
2022-10-06T03:44:28.769Z,2.17
2022-10-06T03:46:55.602Z,1.85
2022-10-06T03:49:22.562Z,2.03
2022-10-06T03:51:49.880Z,1.85
2022-10-06T03:54:21.852Z,2.03
2022-10-06T03:56:50.612Z,1.90
2022-10-06T03:59:19.509Z,1.63
2022-10-06T04:01:48.924Z,2.05
2022-10-06T04:04:20.896Z,2.22
2022-10-06T04:06:51.675Z,2.20
2022-10-06T04:09:20.168Z,1.98
2022-10-06T04:11:47.671Z,2.35
2022-10-06T04:14:16.643Z,2.63
2022-10-06T04:16:47.227Z,2.00
2022-10-06T04:19:17.685Z,2.25
2022-10-06T04:21:48.941Z,1.73
2022-10-06T04:24:21.866Z,1.77
2022-10-06T04:26:50.132Z,1.88
2022-10-06T04:29:18.654Z,1.92
2022-10-06T04:31:50.552Z,2.00
2022-10-06T04:34:33.737Z,1.95
2022-10-06T04:37:00.600Z,1.90
2022-10-06T04:39:27.748Z,2.03
2022-10-06T04:41:55.746Z,2.00
2022-10-06T04:44:26.998Z,2.78
2022-10-06T04:46:56.535Z,1.58
2022-10-06T04:49:23.989Z,2.70
2022-10-06T04:51:52.962Z,2.63
2022-10-06T04:54:20.980Z,3.08
2022-10-06T04:56:51.526Z,2.20
2022-10-06T04:59:41.698Z,2.55
2022-10-06T05:02:09.522Z,1.95
2022-10-06T05:04:36.460Z,2.03
2022-10-06T05:07:03.331Z,2.38
2022-10-06T05:09:30.686Z,3.00
2022-10-06T05:11:58.019Z,1.88
2022-10-06T05:14:25.663Z,2.20
2022-10-06T05:16:52.854Z,2.22
2022-10-06T05:19:19.817Z,2.17
2022-10-06T05:21:47.587Z,2.35
2022-10-06T05:24:18.587Z,2.15
2022-10-06T05:26:45.594Z,2.53
2022-10-06T05:29:14.883Z,1.88
2022-10-06T05:31:43.652Z,2.50
2022-10-06T05:34:11.529Z,2.78
2022-10-06T05:36:39.014Z,3.15
2022-10-06T05:39:06.921Z,2.40
2022-10-06T05:41:43.020Z,2.50
2022-10-06T05:44:11.253Z,2.58
2022-10-06T05:46:40.744Z,2.60
2022-10-06T05:49:10.495Z,2.38
2022-10-06T05:51:40.814Z,3.30
2022-10-06T05:54:21.571Z,2.42
2022-10-06T05:56:49.285Z,2.67
2022-10-06T05:59:16.445Z,3.03
2022-10-06T06:01:44.525Z,2.50
2022-10-06T06:04:25.575Z,2.95
2022-10-06T06:06:55.751Z,2.22
2022-10-06T06:09:26.250Z,2.80
2022-10-06T06:11:55.160Z,3.15
2022-10-06T06:14:48.586Z,2.65
2022-10-06T06:17:20.061Z,2.70
2022-10-06T06:19:47.111Z,3.28
2022-10-06T06:22:15.472Z,3.03
2022-10-06T06:24:44.448Z,3.60
2022-10-06T06:27:11.684Z,3.00
2022-10-06T06:29:40.173Z,2.60
2022-10-06T06:32:10.585Z,2.80
2022-10-06T06:34:37.649Z,2.63
2022-10-06T06:37:09.463Z,2.30
2022-10-06T06:39:40.001Z,2.83
2022-10-06T06:42:08.578Z,3.28
2022-10-06T06:44:38.854Z,3.05
2022-10-06T06:47:13.209Z,2.35
2022-10-06T06:49:40.159Z,2.42
2022-10-06T06:52:08.558Z,2.95
2022-10-06T06:54:38.059Z,2.88
2022-10-06T06:57:09.928Z,2.80
2022-10-06T06:59:38.204Z,3.53
2022-10-06T07:02:08.946Z,2.30
2022-10-06T07:04:38.492Z,2.47
2022-10-06T07:07:08.109Z,2.50
2022-10-06T07:09:36.970Z,2.47
2022-10-06T07:12:09.020Z,2.58
2022-10-06T07:14:35.920Z,2.22
2022-10-06T07:17:22.880Z,3.10
2022-10-06T07:19:56.420Z,2.55
2022-10-06T07:22:46.119Z,2.13
2022-10-06T07:25:26.263Z,3.72
2022-10-06T07:28:06.794Z,3.83
2022-10-06T07:30:40.741Z,3.03
2022-10-06T07:33:11.646Z,2.67
2022-10-06T07:35:39.590Z,3.15
2022-10-06T07:38:08.088Z,2.70
2022-10-06T07:41:18.364Z,3.05
2022-10-06T07:43:42.393Z,2.05
2022-10-06T07:46:14.126Z,2.83
2022-10-06T07:48:49.758Z,3.00
2022-10-06T07:51:19.370Z,2.83
2022-10-06T07:53:50.208Z,2.05
2022-10-06T07:56:33.826Z,3.28
2022-10-06T07:59:00.915Z,2.67
2022-10-06T08:01:29.609Z,2.53
2022-10-06T08:03:56.692Z,3.13
2022-10-06T08:06:24.656Z,3.10
2022-10-06T08:08:53.329Z,3.13
2022-10-06T08:11:20.994Z,2.38
2022-10-06T08:13:48.391Z,3.17
2022-10-06T08:16:21.364Z,3.40
2022-10-06T08:18:55.724Z,2.35
2022-10-06T08:21:28.956Z,2.78
2022-10-06T08:23:57.150Z,2.45
2022-10-06T08:26:25.989Z,3.00
2022-10-06T08:28:57.549Z,2.83
2022-10-06T08:31:24.830Z,2.28
2022-10-06T08:33:56.757Z,2.58
2022-10-06T08:36:30.876Z,2.47
2022-10-06T08:39:02.026Z,2.05
2022-10-06T08:41:40.370Z,2.17
2022-10-06T08:44:15.861Z,2.67
2022-10-06T08:46:49.471Z,2.40
2022-10-06T08:49:20.242Z,2.65
2022-10-06T08:51:59.143Z,2.65
2022-10-06T08:54:29.860Z,2.50
2022-10-06T08:57:16.886Z,2.35
2022-10-06T08:59:48.114Z,1.98
2022-10-06T09:02:41.834Z,2.22
2022-10-06T09:05:12.010Z,2.90
2022-10-06T09:07:43.769Z,2.10
2022-10-06T09:10:33.815Z,1.98
2022-10-06T09:13:09.765Z,2.35
2022-10-06T09:15:49.975Z,2.15
2022-10-06T09:18:56.110Z,2.20
2022-10-06T09:21:35.392Z,1.80
2022-10-06T09:24:11.849Z,2.17
2022-10-06T09:26:43.545Z,1.75
2022-10-06T09:29:11.129Z,1.80
2022-10-06T09:31:41.465Z,2.00
2022-10-06T09:34:18.736Z,2.03
2022-10-06T09:37:03.368Z,2.10
2022-10-06T09:39:36.330Z,2.50
2022-10-06T09:42:25.135Z,2.03
2022-10-06T09:45:00.936Z,2.15
2022-10-06T09:47:33.612Z,2.05
2022-10-06T09:50:06.285Z,2.38
2022-10-06T09:52:33.209Z,2.13
2022-10-06T09:55:13.800Z,1.55
2022-10-06T09:57:50.224Z,2.33
2022-10-06T10:00:31.285Z,2.45
2022-10-06T10:03:04.566Z,1.55
2022-10-06T10:05:37.312Z,1.30
2022-10-06T10:08:27.466Z,2.13
2022-10-06T10:11:29.550Z,1.58
2022-10-06T10:13:59.208Z,1.38
2022-10-06T10:16:35.155Z,1.80
2022-10-06T10:19:04.183Z,1.58
2022-10-06T10:21:37.155Z,1.30
2022-10-06T10:24:07.358Z,1.40
2022-10-06T10:26:58.186Z,1.70
2022-10-06T10:30:01.773Z,2.22
2022-10-06T10:32:43.890Z,1.48
2022-10-06T10:35:25.070Z,1.42
2022-10-06T10:38:14.789Z,1.60
2022-10-06T10:41:20.896Z,1.40
2022-10-06T10:44:03.361Z,1.73
2022-10-06T10:46:42.502Z,1.83
2022-10-06T10:49:19.138Z,1.95
2022-10-06T10:52:16.318Z,1.85
2022-10-06T10:54:54.461Z,1.20
2022-10-06T10:57:24.131Z,1.38
2022-10-06T10:59:59.854Z,1.20
2022-10-06T11:02:27.285Z,1.45
2022-10-06T11:05:05.283Z,1.50
2022-10-06T11:07:57.919Z,1.20
2022-10-06T11:10:34.305Z,1.63
2022-10-06T11:13:22.245Z,1.67
2022-10-06T11:16:22.057Z,1.60
2022-10-06T11:19:02.747Z,1.50
2022-10-06T11:21:59.983Z,1.50
2022-10-06T11:24:48.018Z,1.40
2022-10-06T11:27:42.012Z,1.20
2022-10-06T11:30:16.506Z,1.70
2022-10-06T11:32:49.368Z,1.00
2022-10-06T11:35:27.337Z,1.40
2022-10-06T11:38:14.668Z,1.30
2022-10-06T11:41:01.269Z,1.70
2022-10-06T11:43:54.563Z,1.30
2022-10-06T11:46:31.116Z,1.50
2022-10-06T11:49:30.481Z,1.20
2022-10-06T11:52:08.415Z,1.17
2022-10-06T11:54:44.555Z,1.25
2022-10-06T11:57:27.989Z,0.88
2022-10-06T12:00:12.544Z,1.45
2022-10-06T12:02:41.992Z,1.35
2022-10-06T12:05:28.447Z,1.38
2022-10-06T12:07:57.022Z,1.25
2022-10-06T12:10:32.250Z,1.10
2022-10-06T12:14:09.077Z,1.65
2022-10-06T12:19:27.778Z,1.58
2022-10-06T12:22:30.983Z,0.98
2022-10-06T12:24:58.140Z,1.00
2022-10-06T12:27:31.160Z,1.58
2022-10-06T12:30:22.533Z,1.75
2022-10-06T12:32:55.815Z,1.20
2022-10-06T12:35:35.607Z,1.50
2022-10-06T12:38:10.167Z,1.10
2022-10-06T12:40:49.082Z,1.23
2022-10-06T12:43:18.886Z,1.95
2022-10-06T12:45:54.683Z,0.82
2022-10-06T12:48:46.673Z,1.33
2022-10-06T12:51:34.504Z,1.48
2022-10-06T12:54:15.212Z,1.02
2022-10-06T12:56:43.461Z,1.42
2022-10-06T12:59:22.353Z,1.45
2022-10-06T13:01:58.576Z,1.35
2022-10-06T13:04:34.527Z,1.15
2022-10-06T13:07:22.840Z,1.10
2022-10-06T13:09:53.985Z,1.15
2022-10-06T13:12:36.717Z,1.17
2022-10-06T13:15:34.609Z,1.25
2022-10-06T13:18:13.955Z,1.27
2022-10-06T13:20:43.759Z,1.40
2022-10-06T13:23:32.955Z,1.88
2022-10-06T13:26:12.996Z,1.58
2022-10-06T13:28:42.686Z,1.42
2022-10-06T13:31:15.376Z,1.42
2022-10-06T13:33:44.352Z,1.23
2022-10-06T13:36:12.491Z,1.73
2022-10-06T13:38:41.755Z,1.98
2022-10-06T13:41:21.174Z,1.30
2022-10-06T13:44:10.672Z,1.50
2022-10-06T13:46:45.894Z,1.30
2022-10-06T13:49:28.697Z,1.10
2022-10-06T13:52:02.590Z,1.38
2022-10-06T13:54:58.543Z,1.65
2022-10-06T13:57:49.527Z,1.50
2022-10-06T14:00:30.224Z,1.33
2022-10-06T14:03:09.939Z,1.30
2022-10-06T14:05:41.575Z,1.95
2022-10-06T14:08:11.409Z,2.70
2022-10-06T14:10:41.249Z,1.35
2022-10-06T14:13:22.921Z,1.63
2022-10-06T14:16:18.352Z,1.30
2022-10-06T14:18:53.482Z,1.88
2022-10-06T14:21:32.196Z,1.48
2022-10-06T14:24:03.643Z,1.35
2022-10-06T14:26:37.534Z,2.00
2022-10-06T14:29:04.791Z,1.40
2022-10-06T14:31:34.040Z,1.30
2022-10-06T14:34:02.699Z,1.83
2022-10-06T14:36:36.961Z,1.20
2022-10-06T14:39:07.226Z,1.30
2022-10-06T14:41:34.730Z,1.40
2022-10-06T14:44:05.868Z,1.38
2022-10-06T14:46:33.331Z,1.30
2022-10-06T14:49:02.871Z,1.63
2022-10-06T14:51:31.069Z,1.73
2022-10-06T14:54:01.606Z,1.60
2022-10-06T14:56:31.750Z,1.65
2022-10-06T14:59:05.690Z,1.70
2022-10-06T15:01:36.686Z,1.58
2022-10-06T15:04:13.212Z,1.50
2022-10-06T15:06:59.347Z,1.80
2022-10-06T15:09:28.774Z,1.45
2022-10-06T15:11:58.513Z,1.58
2022-10-06T15:14:25.572Z,1.30
2022-10-06T15:16:52.716Z,1.35
2022-10-06T15:19:19.576Z,2.10
2022-10-06T15:21:46.612Z,2.75
2022-10-06T15:24:16.103Z,1.58
2022-10-06T15:27:02.175Z,1.70
2022-10-06T15:29:29.282Z,1.70
2022-10-06T15:31:56.469Z,1.10
2022-10-06T15:34:46.411Z,1.65
2022-10-06T15:37:13.303Z,1.65
2022-10-06T15:39:40.144Z,1.92
2022-10-06T15:42:08.695Z,1.90
2022-10-06T15:44:36.061Z,1.50
2022-10-06T15:47:05.639Z,1.77
2022-10-06T15:49:37.673Z,1.83
2022-10-06T15:52:05.427Z,1.60
2022-10-06T15:54:40.834Z,1.52
2022-10-06T15:57:13.867Z,1.30
2022-10-06T15:59:44.072Z,1.67
2022-10-06T16:02:16.770Z,1.60
2022-10-06T16:04:44.927Z,1.65
2022-10-06T16:07:17.391Z,1.55
2022-10-06T16:09:51.250Z,2.13
2022-10-06T16:12:21.452Z,1.88
2022-10-06T16:14:48.583Z,1.70
2022-10-06T16:17:15.904Z,1.92
2022-10-06T16:19:42.903Z,1.75
2022-10-06T16:22:12.657Z,1.90
2022-10-06T16:24:39.559Z,2.28
2022-10-06T16:27:06.673Z,1.67
2022-10-06T16:29:33.526Z,1.30
2022-10-06T16:32:00.316Z,1.95
2022-10-06T16:34:27.136Z,2.50
2022-10-06T16:36:53.988Z,2.30
2022-10-06T16:39:22.424Z,2.60
2022-10-06T16:41:50.229Z,2.95
2022-10-06T16:44:17.872Z,2.42
2022-10-06T16:46:45.306Z,2.42
2022-10-06T16:49:12.582Z,2.50
2022-10-06T16:51:42.168Z,1.85
2022-10-06T16:54:11.454Z,2.38
2022-10-06T16:56:49.149Z,2.13
2022-10-06T16:59:19.068Z,2.03
2022-10-06T17:01:46.978Z,2.13
2022-10-06T17:04:22.022Z,2.67
2022-10-06T17:06:51.723Z,3.72
2022-10-06T17:09:20.867Z,2.70
2022-10-06T17:11:56.292Z,3.00
2022-10-06T17:14:23.228Z,2.95
2022-10-06T17:16:53.040Z,2.70
2022-10-06T17:19:21.514Z,2.90
2022-10-06T17:21:52.776Z,3.15
2022-10-06T17:24:25.598Z,5.05
2022-10-06T17:26:52.841Z,4.28
2022-10-06T17:29:22.089Z,3.95
2022-10-06T17:31:51.010Z,3.67
2022-10-06T17:34:22.919Z,3.95
2022-10-06T17:36:52.134Z,3.30
2022-10-06T17:39:23.057Z,3.78
2022-10-06T17:41:52.623Z,2.88
2022-10-06T17:44:23.168Z,3.30
2022-10-06T17:46:52.871Z,3.33
2022-10-06T17:49:21.433Z,3.35
2022-10-06T17:51:49.574Z,3.08
2022-10-06T17:54:19.980Z,2.97
2022-10-06T17:56:48.810Z,3.70
2022-10-06T17:59:28.894Z,4.07
2022-10-06T18:02:33.109Z,4.68
2022-10-06T18:05:00.095Z,4.63
2022-10-06T18:07:26.938Z,3.58
2022-10-06T18:10:14.167Z,4.10
2022-10-06T18:12:41.146Z,4.75
2022-10-06T18:15:09.974Z,4.22
2022-10-06T18:17:45.460Z,4.78
2022-10-06T18:20:12.423Z,4.43
2022-10-06T18:22:39.701Z,4.25
2022-10-06T18:25:07.121Z,3.95
2022-10-06T18:27:34.044Z,4.30
2022-10-06T18:30:00.862Z,4.70
2022-10-06T18:33:56.440Z,5.47
2022-10-06T18:38:02.103Z,5.03
2022-10-06T18:40:28.874Z,6.25
2022-10-06T18:43:16.930Z,5.70
2022-10-06T18:46:04.883Z,6.28
2022-10-06T18:48:50.138Z,5.90
2022-10-06T18:51:17.000Z,6.00
2022-10-06T18:53:43.793Z,7.38
2022-10-06T18:56:10.946Z,5.93
2022-10-06T18:58:41.780Z,6.07
2022-10-06T19:01:08.709Z,5.82
2022-10-06T19:03:35.701Z,5.70
2022-10-06T19:06:02.971Z,5.10
2022-10-06T19:08:29.750Z,5.93
2022-10-06T19:11:20.120Z,5.82
2022-10-06T19:13:52.073Z,5.85
2022-10-06T19:16:20.296Z,4.55
2022-10-06T19:18:47.213Z,4.90
2022-10-06T19:21:14.116Z,5.75
2022-10-06T19:23:41.480Z,4.72
2022-10-06T19:26:11.071Z,5.57
2022-10-06T19:28:39.417Z,4.90
2022-10-06T19:31:12.406Z,5.38
2022-10-06T19:33:39.663Z,5.30
2022-10-06T19:36:08.149Z,4.97
2022-10-06T19:38:37.741Z,4.93
2022-10-06T19:41:23.900Z,4.90
2022-10-06T19:43:51.064Z,6.38
2022-10-06T19:46:18.258Z,4.90
2022-10-06T19:48:45.156Z,4.88
2022-10-06T19:51:17.614Z,4.93
2022-10-06T19:53:51.468Z,4.97
2022-10-06T19:56:19.782Z,5.13
2022-10-06T19:58:46.760Z,4.40
2022-10-06T20:01:13.771Z,4.47
2022-10-06T20:03:41.592Z,4.57
2022-10-06T20:06:14.094Z,4.70
2022-10-06T20:08:41.980Z,4.55
2022-10-06T20:11:11.978Z,4.85
2022-10-06T20:13:48.070Z,5.00
2022-10-06T20:16:26.504Z,4.80
2022-10-06T20:19:13.222Z,4.53
2022-10-06T20:21:40.926Z,5.15
2022-10-06T20:24:17.647Z,4.40
2022-10-06T20:26:46.330Z,4.22
2022-10-06T20:29:15.145Z,4.50
2022-10-06T20:31:47.567Z,4.68
2022-10-06T20:34:18.276Z,4.88
2022-10-06T20:36:46.233Z,4.35
2022-10-06T20:39:37.533Z,4.78
2022-10-06T20:42:17.026Z,4.15
2022-10-06T20:44:44.456Z,4.72
2022-10-06T20:47:14.546Z,4.35
2022-10-06T20:49:42.676Z,4.95
2022-10-06T20:52:10.427Z,4.03
2022-10-06T20:54:37.527Z,4.82
2022-10-06T20:57:06.280Z,5.32
2022-10-06T20:59:36.948Z,4.68
2022-10-06T21:02:05.108Z,4.10
2022-10-06T21:04:32.067Z,4.30
2022-10-06T21:06:58.971Z,4.53
2022-10-06T21:09:28.464Z,4.53
2022-10-06T21:11:57.464Z,4.50
2022-10-06T21:14:24.726Z,3.92
2022-10-06T21:16:52.526Z,4.55
2022-10-06T21:19:20.010Z,4.13
2022-10-06T21:21:53.332Z,4.18
2022-10-06T21:24:20.659Z,4.90
2022-10-06T21:26:48.792Z,4.32
2022-10-06T21:29:16.475Z,4.70
2022-10-06T21:31:45.117Z,5.30
2022-10-06T21:34:14.285Z,4.90
2022-10-06T21:36:41.620Z,5.25
2022-10-06T21:39:08.884Z,4.63
2022-10-06T21:41:40.769Z,4.65
2022-10-06T21:44:13.257Z,4.47
2022-10-06T21:46:51.832Z,4.95
2022-10-06T21:49:23.794Z,4.85
2022-10-06T21:51:55.386Z,5.13
2022-10-06T21:54:23.253Z,4.63
2022-10-06T21:56:53.050Z,5.35
2022-10-06T21:59:20.185Z,4.32
2022-10-06T22:01:49.916Z,5.05
2022-10-06T22:04:17.416Z,5.13
2022-10-06T22:06:45.715Z,5.03
2022-10-06T22:09:16.296Z,5.13
2022-10-06T22:11:43.623Z,4.15
2022-10-06T22:14:12.473Z,4.07
2022-10-06T22:16:40.265Z,4.85
2022-10-06T22:19:09.606Z,4.93
2022-10-06T22:21:38.698Z,4.63
2022-10-06T22:24:18.297Z,5.28
2022-10-06T22:26:45.784Z,5.10
2022-10-06T22:29:16.070Z,4.88
2022-10-06T22:31:45.154Z,5.38
2022-10-06T22:34:14.428Z,4.50
2022-10-06T22:36:41.695Z,4.65
2022-10-06T22:39:08.761Z,4.15
2022-10-06T22:41:35.802Z,5.10
2022-10-06T22:44:03.219Z,4.57
2022-10-06T22:46:32.877Z,4.28
2022-10-06T22:49:00.137Z,4.57
2022-10-06T22:51:27.036Z,4.20
2022-10-06T22:53:58.281Z,4.38
2022-10-06T22:56:31.560Z,4.65
2022-10-06T22:58:59.859Z,4.03
2022-10-06T23:01:28.284Z,4.00
2022-10-06T23:03:55.791Z,4.35
2022-10-06T23:06:23.063Z,4.05
2022-10-06T23:08:50.209Z,3.75
2022-10-06T23:11:19.539Z,3.47
2022-10-06T23:13:48.420Z,4.00
2022-10-06T23:16:17.123Z,3.50
2022-10-06T23:18:45.257Z,3.60
2022-10-06T23:21:19.027Z,4.25
2022-10-06T23:23:46.323Z,4.03
2022-10-06T23:26:14.772Z,3.50
2022-10-06T23:28:42.343Z,3.78
2022-10-06T23:31:10.830Z,3.60
2022-10-06T23:33:38.202Z,3.88
2022-10-06T23:36:08.332Z,3.58
2022-10-06T23:38:36.832Z,3.85
2022-10-06T23:41:04.916Z,4.60
2022-10-06T23:43:32.008Z,4.35
2022-10-06T23:45:58.933Z,3.47
2022-10-06T23:48:26.154Z,3.53
2022-10-06T23:51:07.521Z,4.18
2022-10-06T23:53:34.933Z,3.70
2022-10-06T23:56:01.846Z,3.92
2022-10-06T23:58:28.870Z,3.25
